Heislerville, NJ (08324)

12:02 AM EDT on October 01, 2014 (GMT -0400)
Eldora | Change Station
CLOSE
Current Station
Personal Weather Station
Location: Woodbine, NJ
Elevation: 15 ft
Nearby Weather Stations

Elev 15 ft 39.21 °N, 74.91 °W | Updated 47 seconds ago

Clear
Clear
60.1 °F
Feels Like 60.1 °F
N
0.0
Wind Variable Wind from NNE
Gusts 0.0 mph

Today
High -- | Low -- °F
--% Chance of Precip.
Yesterday
High -- | Low -- °F
Precip. -- in
6:56 AM 6:42 PM
Waxing Crescent, 43% visible
Pressure 29.96 in
Visibility 10.0 miles
Clouds Overcast 8500 ft
Dew Point 59 °F
Humidity 95%
Rainfall 0.06 in
Snow Depth Not available.
UV 0.0 out of 12
Pollen 3.30 out of 12
Ozone Good
PM2.5 Good
Flu Activity Not available.
METAR KMIV 300154Z AUTO 00000KT 10SM OVC085 18/17 A2996 RMK AO2 RAE47 SLP143 P0000 T01830172

More Conditions Fewer Conditions

Pressure 29.96 in
Visibility 10.0 miles
Clouds Overcast 8500 ft
Dew Point 59 °F
Humidity 95%
Rainfall 0.06 in
Snow Depth Not available.
UV 0.0 out of 12
Pollen 3.30 out of 12
Ozone Good
PM2.5 Good
Flu Activity Not available.
METAR KMIV 300154Z AUTO 00000KT 10SM OVC085 18/17 A2996 RMK AO2 RAE47 SLP143 P0000 T01830172

More Conditions Fewer Conditions

10-Day Weather Forecast

Almanac

Astronomy

Oct. 01, 2014 Rise Set
Actual Time 6:56 AM EDT 6:42 PM EDT
Civil Twilight 6:29 AM EDT 7:09 PM EDT
Nautical Twilight 5:58 AM EDT 7:40 PM EDT
Astronomical Twilight 5:26 AM EDT 8:11 PM EDT
Moon 1:53 PM EDT No Moon Set
Length of Visible Light 12h 39m
Length of Day
11h 46m
Tomorrow will be 2m 32s shorter.
Waxing Crescent, 43% of the Moon is Illuminated
Today
Waxing Crescent
Oct 1
First Quarter
Oct 8
Full
Oct 15
Last Quarter
Oct 23
New

Yesterday's Extremes

State Highs State Lows

Community

WunderPhotos

Upload Photos

1,757,840 photos uploaded!

Nearby

Air Quality

  Air Quality AQ Index Pollutant
Yesterday Moderate
PM2.5
Yesterday Good
OZONE
Current Good
PM2.5
Current Good
OZONE
Tuesday Moderate
PM2.5
Tuesday Good
OZONE
Wednesday Good
PM2.5
Wednesday Good
OZONE

Snow Depth

Station Depth Elevation
No new snow has been reported.

Earthquake Activity

City Distance Mag. Time & Date
No recent earthquake activity has been reported nearby.
Minimum magnitude displayed is 2.5.

Coastal Water Temperatures

Place Temperature
Cape May, NJ 73.9 °F
Lewes, DE 71.1 °F

Nearby Weather Stations